sensor_id;sensor_type;location;lat;lon;timestamp;P1;durP1;ratioP1;P2;durP2;ratioP2
10096;SDS011;5087;42.662;23.466;2022-07-24T00:01:18;13.03;;;11.80;;
10096;SDS011;5087;42.662;23.466;2022-07-24T00:03:46;13.40;;;12.27;;
10096;SDS011;5087;42.662;23.466;2022-07-24T00:06:13;12.93;;;10.70;;
10096;SDS011;5087;42.662;23.466;2022-07-24T00:08:40;13.07;;;11.87;;
10096;SDS011;5087;42.662;23.466;2022-07-24T00:11:07;13.33;;;12.03;;
10096;SDS011;5087;42.662;23.466;2022-07-24T00:13:36;12.70;;;11.50;;
10096;SDS011;5087;42.662;23.466;2022-07-24T00:16:03;12.57;;;11.63;;
10096;SDS011;5087;42.662;23.466;2022-07-24T00:18:31;13.70;;;12.50;;
10096;SDS011;5087;42.662;23.466;2022-07-24T00:20:58;13.30;;;11.63;;
10096;SDS011;5087;42.662;23.466;2022-07-24T00:23:25;12.50;;;11.30;;
10096;SDS011;5087;42.662;23.466;2022-07-24T00:25:52;12.63;;;11.27;;
10096;SDS011;5087;42.662;23.466;2022-07-24T00:28:20;16.57;;;11.10;;
10096;SDS011;5087;42.662;23.466;2022-07-24T00:30:48;12.00;;;10.93;;
10096;SDS011;5087;42.662;23.466;2022-07-24T00:33:16;12.03;;;11.10;;
10096;SDS011;5087;42.662;23.466;2022-07-24T00:35:44;12.60;;;11.17;;
10096;SDS011;5087;42.662;23.466;2022-07-24T00:38:11;12.27;;;11.07;;
10096;SDS011;5087;42.662;23.466;2022-07-24T00:40:38;11.93;;;10.70;;
10096;SDS011;5087;42.662;23.466;2022-07-24T00:43:05;11.87;;;10.77;;
10096;SDS011;5087;42.662;23.466;2022-07-24T00:45:33;12.17;;;11.17;;
10096;SDS011;5087;42.662;23.466;2022-07-24T00:48:02;11.50;;;10.60;;
10096;SDS011;5087;42.662;23.466;2022-07-24T00:50:29;11.80;;;10.77;;
10096;SDS011;5087;42.662;23.466;2022-07-24T00:52:56;12.83;;;11.03;;
10096;SDS011;5087;42.662;23.466;2022-07-24T00:55:24;12.67;;;11.57;;
10096;SDS011;5087;42.662;23.466;2022-07-24T00:57:51;12.33;;;11.10;;
10096;SDS011;5087;42.662;23.466;2022-07-24T01:00:19;11.23;;;10.33;;
10096;SDS011;5087;42.662;23.466;2022-07-24T01:02:47;11.60;;;10.50;;
10096;SDS011;5087;42.662;23.466;2022-07-24T01:05:17;12.53;;;11.17;;
10096;SDS011;5087;42.662;23.466;2022-07-24T01:07:45;13.33;;;11.20;;
10096;SDS011;5087;42.662;23.466;2022-07-24T01:10:13;13.87;;;12.03;;
10096;SDS011;5087;42.662;23.466;2022-07-24T01:12:40;13.37;;;11.80;;
10096;SDS011;5087;42.662;23.466;2022-07-24T01:15:08;12.17;;;11.00;;
10096;SDS011;5087;42.662;23.466;2022-07-24T01:17:38;13.23;;;11.90;;
10096;SDS011;5087;42.662;23.466;2022-07-24T01:20:07;12.03;;;10.70;;
10096;SDS011;5087;42.662;23.466;2022-07-24T01:22:37;12.80;;;11.50;;
10096;SDS011;5087;42.662;23.466;2022-07-24T01:25:05;12.33;;;11.33;;
10096;SDS011;5087;42.662;23.466;2022-07-24T01:27:32;12.53;;;11.33;;
10096;SDS011;5087;42.662;23.466;2022-07-24T01:30:00;12.07;;;10.97;;
10096;SDS011;5087;42.662;23.466;2022-07-24T01:32:27;12.50;;;11.40;;
10096;SDS011;5087;42.662;23.466;2022-07-24T01:34:54;12.87;;;11.50;;
10096;SDS011;5087;42.662;23.466;2022-07-24T01:37:21;11.50;;;10.20;;
10096;SDS011;5087;42.662;23.466;2022-07-24T01:39:49;14.73;;;11.77;;
10096;SDS011;5087;42.662;23.466;2022-07-24T01:42:16;13.87;;;11.33;;
10096;SDS011;5087;42.662;23.466;2022-07-24T01:44:46;13.90;;;11.07;;
10096;SDS011;5087;42.662;23.466;2022-07-24T01:47:13;12.77;;;11.47;;
10096;SDS011;5087;42.662;23.466;2022-07-24T01:49:40;14.23;;;12.20;;
10096;SDS011;5087;42.662;23.466;2022-07-24T01:52:08;11.97;;;10.90;;
10096;SDS011;5087;42.662;23.466;2022-07-24T01:54:35;11.47;;;10.57;;
10096;SDS011;5087;42.662;23.466;2022-07-24T01:57:03;12.40;;;11.20;;
10096;SDS011;5087;42.662;23.466;2022-07-24T01:59:31;12.43;;;11.20;;
10096;SDS011;5087;42.662;23.466;2022-07-24T02:01:58;12.07;;;10.90;;
10096;SDS011;5087;42.662;23.466;2022-07-24T02:04:25;13.13;;;11.63;;
10096;SDS011;5087;42.662;23.466;2022-07-24T02:06:52;12.83;;;11.67;;
10096;SDS011;5087;42.662;23.466;2022-07-24T02:09:19;13.20;;;11.90;;
10096;SDS011;5087;42.662;23.466;2022-07-24T02:11:46;13.10;;;11.80;;
10096;SDS011;5087;42.662;23.466;2022-07-24T02:14:15;13.07;;;11.63;;
10096;SDS011;5087;42.662;23.466;2022-07-24T02:16:42;13.03;;;11.87;;
10096;SDS011;5087;42.662;23.466;2022-07-24T02:19:09;12.37;;;11.23;;
10096;SDS011;5087;42.662;23.466;2022-07-24T02:21:37;17.73;;;12.00;;
10096;SDS011;5087;42.662;23.466;2022-07-24T02:24:04;13.07;;;11.93;;
10096;SDS011;5087;42.662;23.466;2022-07-24T02:26:32;12.53;;;11.43;;
10096;SDS011;5087;42.662;23.466;2022-07-24T02:28:59;14.77;;;12.00;;
10096;SDS011;5087;42.662;23.466;2022-07-24T02:31:28;11.57;;;10.70;;
10096;SDS011;5087;42.662;23.466;2022-07-24T02:33:55;12.43;;;11.23;;
10096;SDS011;5087;42.662;23.466;2022-07-24T02:36:22;12.17;;;11.07;;
10096;SDS011;5087;42.662;23.466;2022-07-24T02:38:49;17.27;;;11.60;;
10096;SDS011;5087;42.662;23.466;2022-07-24T02:41:16;12.73;;;11.53;;
10096;SDS011;5087;42.662;23.466;2022-07-24T02:43:44;14.93;;;11.50;;
10096;SDS011;5087;42.662;23.466;2022-07-24T02:46:11;14.93;;;12.03;;
10096;SDS011;5087;42.662;23.466;2022-07-24T02:48:39;11.93;;;10.83;;
10096;SDS011;5087;42.662;23.466;2022-07-24T02:51:07;14.03;;;11.43;;
10096;SDS011;5087;42.662;23.466;2022-07-24T02:53:34;12.93;;;11.67;;
10096;SDS011;5087;42.662;23.466;2022-07-24T02:56:01;13.83;;;11.43;;
10096;SDS011;5087;42.662;23.466;2022-07-24T02:58:28;14.00;;;11.53;;
10096;SDS011;5087;42.662;23.466;2022-07-24T03:00:55;14.57;;;11.37;;
10096;SDS011;5087;42.662;23.466;2022-07-24T03:03:22;13.03;;;11.70;;
10096;SDS011;5087;42.662;23.466;2022-07-24T03:05:51;13.30;;;11.93;;
10096;SDS011;5087;42.662;23.466;2022-07-24T03:08:18;13.73;;;12.13;;
10096;SDS011;5087;42.662;23.466;2022-07-24T03:10:45;12.10;;;11.00;;
10096;SDS011;5087;42.662;23.466;2022-07-24T03:13:12;12.47;;;11.40;;
10096;SDS011;5087;42.662;23.466;2022-07-24T03:15:39;11.97;;;10.87;;
10096;SDS011;5087;42.662;23.466;2022-07-24T03:18:06;11.63;;;10.47;;
10096;SDS011;5087;42.662;23.466;2022-07-24T03:34:26;16.27;;;12.73;;
10096;SDS011;5087;42.662;23.466;2022-07-24T03:36:54;15.90;;;13.17;;
10096;SDS011;5087;42.662;23.466;2022-07-24T03:39:29;12.70;;;11.50;;
10096;SDS011;5087;42.662;23.466;2022-07-24T03:41:56;14.90;;;11.70;;
10096;SDS011;5087;42.662;23.466;2022-07-24T03:44:23;17.90;;;12.57;;
10096;SDS011;5087;42.662;23.466;2022-07-24T03:46:51;12.50;;;11.30;;
10096;SDS011;5087;42.662;23.466;2022-07-24T03:49:21;12.67;;;11.57;;
10096;SDS011;5087;42.662;23.466;2022-07-24T03:51:49;14.10;;;12.23;;
10096;SDS011;5087;42.662;23.466;2022-07-24T03:54:22;14.73;;;11.70;;
10096;SDS011;5087;42.662;23.466;2022-07-24T03:56:49;13.70;;;12.00;;
10096;SDS011;5087;42.662;23.466;2022-07-24T03:59:17;13.50;;;12.13;;
10096;SDS011;5087;42.662;23.466;2022-07-24T04:01:45;13.70;;;12.50;;
10096;SDS011;5087;42.662;23.466;2022-07-24T04:04:12;14.57;;;12.13;;
10096;SDS011;5087;42.662;23.466;2022-07-24T04:06:39;13.23;;;12.03;;
10096;SDS011;5087;42.662;23.466;2022-07-24T04:09:14;15.57;;;13.90;;
10096;SDS011;5087;42.662;23.466;2022-07-24T04:11:41;19.73;;;15.07;;
10096;SDS011;5087;42.662;23.466;2022-07-24T04:14:18;15.60;;;13.93;;
10096;SDS011;5087;42.662;23.466;2022-07-24T04:16:45;14.57;;;13.00;;
10096;SDS011;5087;42.662;23.466;2022-07-24T04:19:16;23.57;;;12.50;;
10096;SDS011;5087;42.662;23.466;2022-07-24T04:21:47;13.43;;;12.10;;
10096;SDS011;5087;42.662;23.466;2022-07-24T04:24:15;14.13;;;12.23;;
10096;SDS011;5087;42.662;23.466;2022-07-24T04:26:43;16.97;;;13.40;;
10096;SDS011;5087;42.662;23.466;2022-07-24T04:29:15;12.83;;;11.43;;
10096;SDS011;5087;42.662;23.466;2022-07-24T04:31:42;13.53;;;12.03;;
10096;SDS011;5087;42.662;23.466;2022-07-24T04:34:13;16.20;;;13.17;;
10096;SDS011;5087;42.662;23.466;2022-07-24T04:36:40;15.10;;;13.67;;
10096;SDS011;5087;42.662;23.466;2022-07-24T04:39:08;15.43;;;12.27;;
10096;SDS011;5087;42.662;23.466;2022-07-24T04:41:36;15.57;;;12.40;;
10096;SDS011;5087;42.662;23.466;2022-07-24T04:44:12;13.73;;;12.43;;
10096;SDS011;5087;42.662;23.466;2022-07-24T04:46:39;14.40;;;13.00;;
10096;SDS011;5087;42.662;23.466;2022-07-24T04:49:07;13.90;;;12.57;;
10096;SDS011;5087;42.662;23.466;2022-07-24T04:51:34;14.83;;;13.37;;
10096;SDS011;5087;42.662;23.466;2022-07-24T04:54:01;13.30;;;11.97;;
10096;SDS011;5087;42.662;23.466;2022-07-24T04:56:37;14.43;;;12.93;;
10096;SDS011;5087;42.662;23.466;2022-07-24T04:59:06;14.47;;;11.93;;
10096;SDS011;5087;42.662;23.466;2022-07-24T05:01:33;13.40;;;11.93;;
10096;SDS011;5087;42.662;23.466;2022-07-24T05:04:00;14.73;;;12.33;;
10096;SDS011;5087;42.662;23.466;2022-07-24T05:06:28;13.67;;;12.50;;
10096;SDS011;5087;42.662;23.466;2022-07-24T05:08:56;15.50;;;12.30;;
10096;SDS011;5087;42.662;23.466;2022-07-24T05:11:24;13.90;;;12.80;;
10096;SDS011;5087;42.662;23.466;2022-07-24T05:13:53;13.77;;;12.57;;
10096;SDS011;5087;42.662;23.466;2022-07-24T05:16:20;14.13;;;12.83;;
10096;SDS011;5087;42.662;23.466;2022-07-24T05:18:47;14.60;;;13.07;;
10096;SDS011;5087;42.662;23.466;2022-07-24T05:21:14;15.70;;;13.03;;
10096;SDS011;5087;42.662;23.466;2022-07-24T05:23:42;14.80;;;13.40;;
10096;SDS011;5087;42.662;23.466;2022-07-24T05:26:12;16.17;;;13.20;;
10096;SDS011;5087;42.662;23.466;2022-07-24T05:28:39;14.00;;;12.60;;
10096;SDS011;5087;42.662;23.466;2022-07-24T05:31:08;14.73;;;13.33;;
10096;SDS011;5087;42.662;23.466;2022-07-24T05:33:35;13.73;;;12.33;;
10096;SDS011;5087;42.662;23.466;2022-07-24T05:36:03;15.13;;;13.60;;
10096;SDS011;5087;42.662;23.466;2022-07-24T05:38:31;17.73;;;12.40;;
10096;SDS011;5087;42.662;23.466;2022-07-24T05:40:58;14.80;;;13.20;;
10096;SDS011;5087;42.662;23.466;2022-07-24T05:43:25;13.63;;;12.33;;
10096;SDS011;5087;42.662;23.466;2022-07-24T05:46:22;16.73;;;11.63;;
10096;SDS011;5087;42.662;23.466;2022-07-24T05:48:52;14.40;;;12.30;;
10096;SDS011;5087;42.662;23.466;2022-07-24T05:51:19;15.97;;;11.73;;
10096;SDS011;5087;42.662;23.466;2022-07-24T05:53:46;18.70;;;13.03;;
10096;SDS011;5087;42.662;23.466;2022-07-24T05:56:13;14.43;;;11.70;;
10096;SDS011;5087;42.662;23.466;2022-07-24T05:58:40;16.23;;;12.80;;
10096;SDS011;5087;42.662;23.466;2022-07-24T06:01:13;13.63;;;12.27;;
10096;SDS011;5087;42.662;23.466;2022-07-24T06:03:42;13.30;;;12.03;;
10096;SDS011;5087;42.662;23.466;2022-07-24T06:06:09;15.80;;;12.57;;
10096;SDS011;5087;42.662;23.466;2022-07-24T06:08:36;16.57;;;11.87;;
10096;SDS011;5087;42.662;23.466;2022-07-24T06:11:03;14.87;;;12.47;;
10096;SDS011;5087;42.662;23.466;2022-07-24T06:13:30;15.53;;;11.30;;
10096;SDS011;5087;42.662;23.466;2022-07-24T06:16:00;14.17;;;12.77;;
10096;SDS011;5087;42.662;23.466;2022-07-24T06:18:31;17.83;;;11.67;;
10096;SDS011;5087;42.662;23.466;2022-07-24T06:20:59;13.13;;;11.20;;
10096;SDS011;5087;42.662;23.466;2022-07-24T06:23:26;12.20;;;11.00;;
10096;SDS011;5087;42.662;23.466;2022-07-24T06:25:53;12.33;;;11.17;;
10096;SDS011;5087;42.662;23.466;2022-07-24T06:28:20;13.03;;;10.07;;
10096;SDS011;5087;42.662;23.466;2022-07-24T06:30:47;12.83;;;10.77;;
10096;SDS011;5087;42.662;23.466;2022-07-24T06:33:15;11.73;;;10.50;;
10096;SDS011;5087;42.662;23.466;2022-07-24T06:35:42;12.63;;;10.57;;
10096;SDS011;5087;42.662;23.466;2022-07-24T06:38:11;13.17;;;10.40;;
10096;SDS011;5087;42.662;23.466;2022-07-24T06:40:38;11.00;;;9.90;;
10096;SDS011;5087;42.662;23.466;2022-07-24T06:43:06;10.50;;;9.47;;
10096;SDS011;5087;42.662;23.466;2022-07-24T06:45:33;15.97;;;9.40;;
10096;SDS011;5087;42.662;23.466;2022-07-24T06:48:01;10.07;;;9.17;;
10096;SDS011;5087;42.662;23.466;2022-07-24T06:50:29;15.77;;;10.43;;
10096;SDS011;5087;42.662;23.466;2022-07-24T06:52:57;10.77;;;9.67;;
10096;SDS011;5087;42.662;23.466;2022-07-24T06:55:25;13.97;;;10.07;;
10096;SDS011;5087;42.662;23.466;2022-07-24T06:57:53;13.63;;;11.27;;
10096;SDS011;5087;42.662;23.466;2022-07-24T07:00:20;13.10;;;11.20;;
10096;SDS011;5087;42.662;23.466;2022-07-24T07:02:47;15.40;;;10.80;;
10096;SDS011;5087;42.662;23.466;2022-07-24T07:05:15;15.20;;;11.00;;
10096;SDS011;5087;42.662;23.466;2022-07-24T07:07:43;16.57;;;11.80;;
10096;SDS011;5087;42.662;23.466;2022-07-24T07:10:12;14.77;;;10.80;;
10096;SDS011;5087;42.662;23.466;2022-07-24T07:12:40;13.00;;;10.50;;
10096;SDS011;5087;42.662;23.466;2022-07-24T07:15:08;16.00;;;12.20;;
10096;SDS011;5087;42.662;23.466;2022-07-24T07:17:36;13.97;;;11.27;;
10096;SDS011;5087;42.662;23.466;2022-07-24T07:20:05;12.57;;;10.83;;
10096;SDS011;5087;42.662;23.466;2022-07-24T07:22:33;14.50;;;11.50;;
10096;SDS011;5087;42.662;23.466;2022-07-24T07:25:01;12.87;;;10.87;;
10096;SDS011;5087;42.662;23.466;2022-07-24T07:27:28;18.40;;;11.57;;
10096;SDS011;5087;42.662;23.466;2022-07-24T07:29:57;17.23;;;11.47;;
10096;SDS011;5087;42.662;23.466;2022-07-24T07:32:24;15.67;;;10.53;;
10096;SDS011;5087;42.662;23.466;2022-07-24T07:34:51;13.90;;;10.63;;
10096;SDS011;5087;42.662;23.466;2022-07-24T07:37:18;20.03;;;11.17;;
10096;SDS011;5087;42.662;23.466;2022-07-24T07:39:45;14.90;;;10.83;;
10096;SDS011;5087;42.662;23.466;2022-07-24T07:42:13;11.30;;;10.13;;
10096;SDS011;5087;42.662;23.466;2022-07-24T07:44:40;14.93;;;10.70;;
10096;SDS011;5087;42.662;23.466;2022-07-24T07:47:09;18.90;;;10.83;;
10096;SDS011;5087;42.662;23.466;2022-07-24T07:49:36;13.73;;;10.57;;
10096;SDS011;5087;42.662;23.466;2022-07-24T07:52:03;11.60;;;10.37;;
10096;SDS011;5087;42.662;23.466;2022-07-24T07:54:31;16.10;;;9.70;;
10096;SDS011;5087;42.662;23.466;2022-07-24T07:56:58;15.90;;;11.30;;
10096;SDS011;5087;42.662;23.466;2022-07-24T07:59:26;15.40;;;11.00;;
10096;SDS011;5087;42.662;23.466;2022-07-24T08:01:53;12.00;;;10.43;;
10096;SDS011;5087;42.662;23.466;2022-07-24T08:04:21;12.47;;;10.00;;
10096;SDS011;5087;42.662;23.466;2022-07-24T08:06:50;14.17;;;11.00;;
10096;SDS011;5087;42.662;23.466;2022-07-24T08:09:18;12.23;;;10.47;;
10096;SDS011;5087;42.662;23.466;2022-07-24T08:11:46;16.03;;;10.40;;
10096;SDS011;5087;42.662;23.466;2022-07-24T08:14:14;13.87;;;10.97;;
10096;SDS011;5087;42.662;23.466;2022-07-24T08:16:41;13.47;;;10.97;;
10096;SDS011;5087;42.662;23.466;2022-07-24T08:19:08;12.73;;;10.17;;
10096;SDS011;5087;42.662;23.466;2022-07-24T08:21:37;13.47;;;10.37;;
10096;SDS011;5087;42.662;23.466;2022-07-24T08:24:04;12.37;;;10.60;;
10096;SDS011;5087;42.662;23.466;2022-07-24T08:26:32;10.37;;;9.23;;
10096;SDS011;5087;42.662;23.466;2022-07-24T08:28:59;12.13;;;9.87;;
10096;SDS011;5087;42.662;23.466;2022-07-24T08:31:27;17.10;;;10.90;;
10096;SDS011;5087;42.662;23.466;2022-07-24T08:33:54;18.27;;;10.13;;
10096;SDS011;5087;42.662;23.466;2022-07-24T08:36:23;15.73;;;9.67;;
10096;SDS011;5087;42.662;23.466;2022-07-24T08:38:52;13.20;;;10.23;;
10096;SDS011;5087;42.662;23.466;2022-07-24T08:41:19;11.73;;;10.13;;
10096;SDS011;5087;42.662;23.466;2022-07-24T08:43:46;11.13;;;9.57;;
10096;SDS011;5087;42.662;23.466;2022-07-24T08:46:14;10.00;;;8.73;;
10096;SDS011;5087;42.662;23.466;2022-07-24T08:48:42;12.17;;;9.80;;
10096;SDS011;5087;42.662;23.466;2022-07-24T08:51:10;12.33;;;8.97;;
10096;SDS011;5087;42.662;23.466;2022-07-24T08:53:39;9.87;;;9.00;;
10096;SDS011;5087;42.662;23.466;2022-07-24T08:56:08;12.97;;;9.40;;
10096;SDS011;5087;42.662;23.466;2022-07-24T08:58:36;11.23;;;9.43;;
10096;SDS011;5087;42.662;23.466;2022-07-24T09:04:57;11.57;;;9.03;;
10096;SDS011;5087;42.662;23.466;2022-07-24T09:07:25;11.83;;;9.30;;
10096;SDS011;5087;42.662;23.466;2022-07-24T09:09:58;14.50;;;9.47;;
10096;SDS011;5087;42.662;23.466;2022-07-24T09:12:31;9.60;;;8.13;;
10096;SDS011;5087;42.662;23.466;2022-07-24T09:15:00;13.27;;;9.20;;
10096;SDS011;5087;42.662;23.466;2022-07-24T09:17:29;13.90;;;9.43;;
10096;SDS011;5087;42.662;23.466;2022-07-24T09:19:56;9.37;;;8.47;;
10096;SDS011;5087;42.662;23.466;2022-07-24T09:22:25;11.97;;;8.57;;
10096;SDS011;5087;42.662;23.466;2022-07-24T09:25:07;12.70;;;8.73;;
10096;SDS011;5087;42.662;23.466;2022-07-24T09:27:38;9.27;;;8.30;;
10096;SDS011;5087;42.662;23.466;2022-07-24T09:30:07;12.77;;;8.90;;
10096;SDS011;5087;42.662;23.466;2022-07-24T09:32:36;9.95;;;8.75;;
10096;SDS011;5087;42.662;23.466;2022-07-24T09:35:04;9.98;;;8.98;;
10096;SDS011;5087;42.662;23.466;2022-07-24T09:37:36;16.30;;;9.43;;
10096;SDS011;5087;42.662;23.466;2022-07-24T09:40:08;12.73;;;9.63;;
10096;SDS011;5087;42.662;23.466;2022-07-24T09:42:38;15.43;;;9.35;;
10096;SDS011;5087;42.662;23.466;2022-07-24T09:45:06;13.00;;;10.57;;
10096;SDS011;5087;42.662;23.466;2022-07-24T09:47:38;14.35;;;10.13;;
10096;SDS011;5087;42.662;23.466;2022-07-24T09:50:13;11.80;;;10.23;;
10096;SDS011;5087;42.662;23.466;2022-07-24T09:52:42;11.20;;;10.02;;
10096;SDS011;5087;42.662;23.466;2022-07-24T09:55:20;16.13;;;10.43;;
10096;SDS011;5087;42.662;23.466;2022-07-24T09:57:51;11.65;;;10.50;;
10096;SDS011;5087;42.662;23.466;2022-07-24T10:00:19;16.45;;;10.55;;
10096;SDS011;5087;42.662;23.466;2022-07-24T10:02:47;14.27;;;10.48;;
10096;SDS011;5087;42.662;23.466;2022-07-24T10:05:15;12.52;;;9.73;;
10096;SDS011;5087;42.662;23.466;2022-07-24T10:07:44;10.52;;;9.48;;
10096;SDS011;5087;42.662;23.466;2022-07-24T10:10:15;14.27;;;9.75;;
10096;SDS011;5087;42.662;23.466;2022-07-24T10:12:44;12.52;;;9.23;;
10096;SDS011;5087;42.662;23.466;2022-07-24T10:15:14;10.05;;;9.05;;
10096;SDS011;5087;42.662;23.466;2022-07-24T10:18:00;10.00;;;9.00;;
10096;SDS011;5087;42.662;23.466;2022-07-24T10:20:42;11.30;;;9.82;;
10096;SDS011;5087;42.662;23.466;2022-07-24T10:23:15;11.90;;;9.50;;
10096;SDS011;5087;42.662;23.466;2022-07-24T10:25:52;10.63;;;8.30;;
10096;SDS011;5087;42.662;23.466;2022-07-24T10:28:30;12.05;;;8.00;;
10096;SDS011;5087;42.662;23.466;2022-07-24T10:31:05;10.88;;;9.13;;
10096;SDS011;5087;42.662;23.466;2022-07-24T10:33:35;9.38;;;8.40;;
10096;SDS011;5087;42.662;23.466;2022-07-24T10:36:04;10.60;;;9.00;;
10096;SDS011;5087;42.662;23.466;2022-07-24T10:38:46;15.48;;;9.73;;
10096;SDS011;5087;42.662;23.466;2022-07-24T10:41:23;10.45;;;9.43;;
10096;SDS011;5087;42.662;23.466;2022-07-24T10:47:00;9.55;;;8.65;;
10096;SDS011;5087;42.662;23.466;2022-07-24T10:49:35;9.43;;;8.43;;
10096;SDS011;5087;42.662;23.466;2022-07-24T10:52:06;9.70;;;8.80;;
10096;SDS011;5087;42.662;23.466;2022-07-24T10:54:35;9.52;;;8.35;;
10096;SDS011;5087;42.662;23.466;2022-07-24T10:57:03;9.65;;;8.63;;
10096;SDS011;5087;42.662;23.466;2022-07-24T10:59:32;12.38;;;8.98;;
10096;SDS011;5087;42.662;23.466;2022-07-24T11:11:04;9.05;;;8.23;;
10096;SDS011;5087;42.662;23.466;2022-07-24T11:13:42;11.30;;;8.65;;
10096;SDS011;5087;42.662;23.466;2022-07-24T11:16:27;9.30;;;8.32;;
10096;SDS011;5087;42.662;23.466;2022-07-24T11:22:06;8.52;;;7.82;;
10096;SDS011;5087;42.662;23.466;2022-07-24T11:24:35;12.73;;;9.57;;
10096;SDS011;5087;42.662;23.466;2022-07-24T11:27:06;11.02;;;8.43;;
10096;SDS011;5087;42.662;23.466;2022-07-24T11:29:39;9.57;;;8.57;;
10096;SDS011;5087;42.662;23.466;2022-07-24T11:32:07;8.80;;;8.10;;
10096;SDS011;5087;42.662;23.466;2022-07-24T11:34:37;9.02;;;8.13;;
10096;SDS011;5087;42.662;23.466;2022-07-24T11:37:05;10.35;;;8.32;;
10096;SDS011;5087;42.662;23.466;2022-07-24T11:39:33;11.63;;;8.95;;
10096;SDS011;5087;42.662;23.466;2022-07-24T11:42:02;9.30;;;7.60;;
10096;SDS011;5087;42.662;23.466;2022-07-24T11:44:32;9.00;;;8.10;;
10096;SDS011;5087;42.662;23.466;2022-07-24T11:47:05;8.98;;;8.07;;
10096;SDS011;5087;42.662;23.466;2022-07-24T11:49:39;8.88;;;8.20;;
10096;SDS011;5087;42.662;23.466;2022-07-24T11:52:13;10.73;;;9.02;;
10096;SDS011;5087;42.662;23.466;2022-07-24T11:54:42;9.45;;;8.57;;
10096;SDS011;5087;42.662;23.466;2022-07-24T11:57:15;8.88;;;8.18;;
10096;SDS011;5087;42.662;23.466;2022-07-24T11:59:44;9.65;;;8.85;;
10096;SDS011;5087;42.662;23.466;2022-07-24T12:02:13;9.25;;;8.45;;
10096;SDS011;5087;42.662;23.466;2022-07-24T12:04:42;12.23;;;8.57;;
10096;SDS011;5087;42.662;23.466;2022-07-24T12:07:10;11.30;;;8.35;;
10096;SDS011;5087;42.662;23.466;2022-07-24T12:09:45;9.23;;;8.40;;
10096;SDS011;5087;42.662;23.466;2022-07-24T12:12:20;8.82;;;8.07;;
10096;SDS011;5087;42.662;23.466;2022-07-24T12:14:52;9.30;;;8.50;;
10096;SDS011;5087;42.662;23.466;2022-07-24T12:17:27;9.25;;;8.35;;
10096;SDS011;5087;42.662;23.466;2022-07-24T12:19:56;9.88;;;7.72;;
10096;SDS011;5087;42.662;23.466;2022-07-24T12:22:25;9.45;;;8.50;;
10096;SDS011;5087;42.662;23.466;2022-07-24T12:24:56;8.20;;;7.70;;
10096;SDS011;5087;42.662;23.466;2022-07-24T12:27:37;9.35;;;8.45;;
10096;SDS011;5087;42.662;23.466;2022-07-24T12:30:17;8.98;;;8.15;;
10096;SDS011;5087;42.662;23.466;2022-07-24T12:32:53;9.60;;;8.70;;
10096;SDS011;5087;42.662;23.466;2022-07-24T12:35:24;10.27;;;9.27;;
10096;SDS011;5087;42.662;23.466;2022-07-24T12:37:52;8.50;;;7.80;;
10096;SDS011;5087;42.662;23.466;2022-07-24T12:40:24;8.75;;;7.85;;
10096;SDS011;5087;42.662;23.466;2022-07-24T12:43:00;8.73;;;7.97;;
10096;SDS011;5087;42.662;23.466;2022-07-24T12:45:30;10.70;;;8.15;;
10096;SDS011;5087;42.662;23.466;2022-07-24T12:48:16;9.68;;;8.75;;
10096;SDS011;5087;42.662;23.466;2022-07-24T12:51:03;9.60;;;8.65;;
10096;SDS011;5087;42.662;23.466;2022-07-24T12:53:33;14.65;;;9.00;;
10096;SDS011;5087;42.662;23.466;2022-07-24T12:56:03;9.70;;;8.35;;
10096;SDS011;5087;42.662;23.466;2022-07-24T12:58:48;9.48;;;8.57;;
10096;SDS011;5087;42.662;23.466;2022-07-24T13:01:27;9.95;;;8.77;;
10096;SDS011;5087;42.662;23.466;2022-07-24T13:04:09;9.43;;;8.70;;
10096;SDS011;5087;42.662;23.466;2022-07-24T13:06:40;12.73;;;8.95;;
10096;SDS011;5087;42.662;23.466;2022-07-24T13:09:09;11.13;;;9.65;;
10096;SDS011;5087;42.662;23.466;2022-07-24T13:11:39;10.48;;;9.32;;
10096;SDS011;5087;42.662;23.466;2022-07-24T13:14:08;11.15;;;9.50;;
10096;SDS011;5087;42.662;23.466;2022-07-24T13:16:36;10.20;;;9.35;;
10096;SDS011;5087;42.662;23.466;2022-07-24T13:19:05;10.27;;;9.30;;
10096;SDS011;5087;42.662;23.466;2022-07-24T13:21:33;11.00;;;10.00;;
10096;SDS011;5087;42.662;23.466;2022-07-24T13:24:03;11.17;;;10.07;;
10096;SDS011;5087;42.662;23.466;2022-07-24T13:26:31;9.97;;;9.27;;
10096;SDS011;5087;42.662;23.466;2022-07-24T13:28:58;10.80;;;9.83;;
10096;SDS011;5087;42.662;23.466;2022-07-24T13:31:25;13.43;;;11.37;;
10096;SDS011;5087;42.662;23.466;2022-07-24T13:33:53;10.60;;;9.57;;
10096;SDS011;5087;42.662;23.466;2022-07-24T13:36:20;15.27;;;10.70;;
10096;SDS011;5087;42.662;23.466;2022-07-24T13:38:48;15.20;;;10.97;;
10096;SDS011;5087;42.662;23.466;2022-07-24T13:41:17;13.43;;;10.60;;
10096;SDS011;5087;42.662;23.466;2022-07-24T13:43:44;11.67;;;10.67;;
10096;SDS011;5087;42.662;23.466;2022-07-24T13:46:12;10.50;;;9.57;;
10096;SDS011;5087;42.662;23.466;2022-07-24T13:48:39;11.00;;;9.90;;
10096;SDS011;5087;42.662;23.466;2022-07-24T13:51:07;10.23;;;9.23;;
10096;SDS011;5087;42.662;23.466;2022-07-24T13:53:34;9.47;;;8.70;;
10096;SDS011;5087;42.662;23.466;2022-07-24T13:56:03;9.57;;;8.87;;
10096;SDS011;5087;42.662;23.466;2022-07-24T13:58:32;11.13;;;9.50;;
10096;SDS011;5087;42.662;23.466;2022-07-24T14:01:03;9.20;;;8.50;;
10096;SDS011;5087;42.662;23.466;2022-07-24T14:03:31;9.73;;;9.03;;
10096;SDS011;5087;42.662;23.466;2022-07-24T14:06:01;10.87;;;9.07;;
10096;SDS011;5087;42.662;23.466;2022-07-24T14:08:28;9.77;;;8.87;;
10096;SDS011;5087;42.662;23.466;2022-07-24T14:10:56;10.17;;;9.37;;
10096;SDS011;5087;42.662;23.466;2022-07-24T14:13:23;11.90;;;10.73;;
10096;SDS011;5087;42.662;23.466;2022-07-24T14:15:51;11.30;;;10.20;;
10096;SDS011;5087;42.662;23.466;2022-07-24T14:18:19;10.60;;;9.80;;
10096;SDS011;5087;42.662;23.466;2022-07-24T14:20:47;10.40;;;9.40;;
10096;SDS011;5087;42.662;23.466;2022-07-24T14:23:16;11.20;;;10.20;;
10096;SDS011;5087;42.662;23.466;2022-07-24T14:25:43;10.50;;;9.70;;
10096;SDS011;5087;42.662;23.466;2022-07-24T14:28:14;10.67;;;9.77;;
10096;SDS011;5087;42.662;23.466;2022-07-24T14:30:41;10.30;;;9.40;;
10096;SDS011;5087;42.662;23.466;2022-07-24T14:33:09;12.03;;;8.90;;
10096;SDS011;5087;42.662;23.466;2022-07-24T14:35:37;10.87;;;8.17;;
10096;SDS011;5087;42.662;23.466;2022-07-24T14:38:04;13.83;;;8.03;;
10096;SDS011;5087;42.662;23.466;2022-07-24T14:40:31;12.63;;;8.53;;
10096;SDS011;5087;42.662;23.466;2022-07-24T14:43:01;9.50;;;8.33;;
10096;SDS011;5087;42.662;23.466;2022-07-24T14:45:28;9.67;;;8.07;;
10096;SDS011;5087;42.662;23.466;2022-07-24T14:47:56;9.37;;;8.13;;
10096;SDS011;5087;42.662;23.466;2022-07-24T14:50:24;9.80;;;8.67;;
10096;SDS011;5087;42.662;23.466;2022-07-24T14:52:52;9.37;;;8.67;;
10096;SDS011;5087;42.662;23.466;2022-07-24T14:55:19;9.30;;;8.50;;
10096;SDS011;5087;42.662;23.466;2022-07-24T14:57:46;9.93;;;8.97;;
10096;SDS011;5087;42.662;23.466;2022-07-24T15:00:14;9.13;;;8.40;;
10096;SDS011;5087;42.662;23.466;2022-07-24T15:02:42;11.00;;;9.27;;
10096;SDS011;5087;42.662;23.466;2022-07-24T15:05:09;9.00;;;8.30;;
10096;SDS011;5087;42.662;23.466;2022-07-24T15:07:37;9.63;;;8.73;;
10096;SDS011;5087;42.662;23.466;2022-07-24T15:10:05;9.00;;;8.30;;
10096;SDS011;5087;42.662;23.466;2022-07-24T15:12:32;10.10;;;8.67;;